Time;durP1;ratioP1;P1;durP2;ratioP2;P2;SDS_P1;SDS_P2;PMS_P1;PMS_P2;Temp;Humidity;BMP_temperature;BMP_pressure;BME280_temperature;BME280_humidity;BME280_pressure;Samples;Min_cycle;Max_cycle;Signal;HPM_P1;HPM_P2
2022/10/14 00:01:38;;;;;;;25.42;11.05;;;10.80;99.90;;;;;;5087403;28;20099;-40
2022/10/14 00:04:04;;;;;;;26.80;11.05;;;10.80;99.90;;;;;;5090115;28;20448;-41
2022/10/14 00:06:31;;;;;;;21.85;10.57;;;10.80;99.90;;;;;;5081917;28;20069;-41
2022/10/14 00:09:04;;;;;;;26.92;12.00;;;10.80;99.90;;;;;;5086705;28;20024;-44
2022/10/14 00:11:32;;;;;;;31.92;12.82;;;10.70;99.90;;;;;;5079523;28;20552;-40
2022/10/14 00:14:00;;;;;;;28.50;11.40;;;10.70;99.90;;;;;;5088755;28;20047;-35
2022/10/14 00:16:32;;;;;;;23.50;9.63;;;10.70;99.90;;;;;;5092511;28;20039;-35
2022/10/14 00:18:58;;;;;;;24.90;10.88;;;10.80;99.90;;;;;;5073473;28;20473;-36
2022/10/14 00:21:24;;;;;;;29.00;12.02;;;10.70;99.90;;;;;;5077911;28;20024;-33
2022/10/14 00:23:50;;;;;;;29.17;13.07;;;10.70;99.90;;;;;;5092434;28;20028;-33
2022/10/14 00:26:22;;;;;;;35.40;12.23;;;10.70;99.90;;;;;;5091393;28;20030;-38
2022/10/14 00:28:48;;;;;;;24.73;10.38;;;10.70;99.90;;;;;;5091728;28;20476;-37
2022/10/14 00:31:14;;;;;;;21.38;10.60;;;10.70;99.90;;;;;;5092181;28;20400;-33
2022/10/14 00:33:42;;;;;;;25.48;11.82;;;10.70;99.90;;;;;;5092253;28;20036;-35
2022/10/14 00:36:12;;;;;;;31.35;13.57;;;10.70;99.90;;;;;;5084268;28;20075;-44
2022/10/14 00:38:37;;;;;;;28.88;12.60;;;10.70;99.90;;;;;;5077394;28;20094;-42
2022/10/14 00:41:03;;;;;;;31.63;13.30;;;10.70;99.90;;;;;;5079075;28;20028;-50
2022/10/14 00:43:49;;;;;;;36.65;14.57;;;10.70;99.90;;;;;;5091418;28;20123;-57
2022/10/14 00:46:14;;;;;;;30.83;13.00;;;10.80;99.90;;;;;;5087542;28;20380;-49
2022/10/14 00:48:40;;;;;;;29.23;11.85;;;10.90;99.90;;;;;;5085233;28;20025;-47
2022/10/14 00:51:07;;;;;;;28.27;11.95;;;10.90;99.90;;;;;;5087666;28;20032;-45
2022/10/14 00:53:33;;;;;;;29.38;13.25;;;10.80;99.90;;;;;;5080619;28;20029;-42
2022/10/14 00:55:59;;;;;;;36.45;11.02;;;10.80;99.90;;;;;;5079427;28;20070;-46
2022/10/14 00:58:24;;;;;;;26.52;11.60;;;10.80;99.90;;;;;;5090351;28;20035;-47
2022/10/14 01:00:50;;;;;;;23.83;11.43;;;10.70;99.90;;;;;;5089705;28;20058;-44
2022/10/14 01:03:22;;;;;;;27.25;11.85;;;10.70;99.90;;;;;;5092746;28;20031;-44
2022/10/14 01:06:16;;;;;;;26.88;11.45;;;10.70;99.90;;;;;;5096739;28;20035;-43
2022/10/14 01:09:00;;;;;;;28.05;12.88;;;10.70;99.90;;;;;;5077783;28;20071;-36
2022/10/14 01:11:40;;;;;;;32.50;13.88;;;10.80;99.90;;;;;;5085191;28;20373;-39
2022/10/14 01:14:30;;;;;;;26.48;11.88;;;10.80;99.90;;;;;;5087377;28;20488;-36
2022/10/14 01:17:01;;;;;;;22.23;11.57;;;10.80;99.90;;;;;;5091552;28;20028;-33
2022/10/14 01:19:58;;;;;;;29.05;12.18;;;10.80;99.90;;;;;;5089069;28;20060;-41
2022/10/14 01:22:31;;;;;;;26.65;12.73;;;10.90;99.90;;;;;;5075657;28;20115;-38
2022/10/14 01:25:13;;;;;;;28.95;12.18;;;10.90;99.90;;;;;;5082421;28;20502;-47
2022/10/14 01:27:48;;;;;;;28.63;13.30;;;10.90;99.90;;;;;;5058827;28;20039;-38
2022/10/14 01:30:25;;;;;;;62.33;26.48;;;10.90;99.90;;;;;;5091165;28;20054;-35
2022/10/14 01:33:12;;;;;;;142.18;71.65;;;10.90;99.90;;;;;;5087074;28;20035;-39
2022/10/14 01:35:52;;;;;;;62.75;27.20;;;11.00;99.90;;;;;;5085391;28;20107;-45
2022/10/14 01:38:51;;;;;;;90.80;44.92;;;11.10;99.90;;;;;;5084856;28;20440;-39
2022/10/14 01:41:21;;;;;;;140.00;69.60;;;11.10;99.90;;;;;;5089886;28;20600;-37
2022/10/14 01:43:50;;;;;;;175.32;86.70;;;11.10;99.90;;;;;;5095473;28;20035;-38
2022/10/14 01:46:17;;;;;;;116.15;59.17;;;11.00;99.90;;;;;;5084415;28;20115;-39
2022/10/14 01:48:48;;;;;;;37.50;17.33;;;11.10;99.90;;;;;;5085885;28;20036;-37
2022/10/14 01:51:21;;;;;;;27.85;14.13;;;11.10;99.90;;;;;;5088634;28;20115;-36
2022/10/14 01:53:55;;;;;;;33.97;14.55;;;11.20;99.90;;;;;;5076959;28;20494;-35
2022/10/14 01:56:21;;;;;;;28.48;13.15;;;11.20;99.90;;;;;;5076390;28;20062;-41
2022/10/14 01:58:47;;;;;;;42.75;18.38;;;11.20;99.90;;;;;;5096026;28;20058;-41
2022/10/14 02:01:12;;;;;;;123.10;57.80;;;11.20;99.90;;;;;;5082353;28;20033;-37
2022/10/14 02:03:45;;;;;;;115.25;53.42;;;11.20;99.90;;;;;;5074501;28;21024;-37
2022/10/14 02:06:25;;;;;;;43.75;22.33;;;11.30;99.90;;;;;;5093159;28;20099;-38
2022/10/14 02:09:00;;;;;;;34.08;14.65;;;11.40;99.90;;;;;;5057460;28;20063;-36
2022/10/14 02:11:55;;;;;;;29.23;14.70;;;11.40;99.90;;;;;;5079079;28;20037;-36
2022/10/14 02:15:00;;;;;;;30.05;13.73;;;11.40;99.90;;;;;;5057603;28;20621;-41
2022/10/14 02:17:33;;;;;;;35.83;14.65;;;11.40;99.90;;;;;;5089045;28;20039;-39
2022/10/14 02:20:19;;;;;;;29.63;13.30;;;11.40;99.90;;;;;;5094493;28;20028;-36
2022/10/14 02:22:53;;;;;;;39.05;15.27;;;11.40;99.90;;;;;;5087513;28;20537;-36
2022/10/14 02:25:31;;;;;;;34.42;14.70;;;11.40;99.90;;;;;;5093205;28;20024;-36
2022/10/14 02:28:00;;;;;;;40.53;15.50;;;11.40;99.90;;;;;;5090485;28;20028;-36
2022/10/14 02:30:30;;;;;;;33.92;14.98;;;11.50;99.90;;;;;;5094545;28;20032;-38
2022/10/14 02:32:58;;;;;;;31.67;14.02;;;11.40;99.90;;;;;;5080961;28;20483;-44
2022/10/14 02:35:24;;;;;;;36.70;14.18;;;11.40;99.90;;;;;;5084127;28;20036;-46
2022/10/14 02:37:51;;;;;;;39.45;16.73;;;11.40;99.90;;;;;;5089975;28;20565;-44
2022/10/14 02:40:36;;;;;;;45.25;17.27;;;11.50;99.90;;;;;;5074976;28;20063;-43
2022/10/14 02:43:01;;;;;;;34.33;14.85;;;11.60;99.90;;;;;;5075029;28;20025;-43
2022/10/14 02:45:28;;;;;;;34.83;14.73;;;11.60;99.90;;;;;;5085496;28;20161;-44
2022/10/14 02:47:53;;;;;;;51.85;15.55;;;11.60;99.90;;;;;;5080209;28;20522;-42
2022/10/14 02:50:20;;;;;;;30.08;14.23;;;11.60;99.90;;;;;;5094396;28;20028;-42
2022/10/14 02:52:45;;;;;;;38.72;16.23;;;11.60;99.90;;;;;;5085113;28;20400;-58
2022/10/14 02:55:11;;;;;;;40.75;17.08;;;11.60;99.90;;;;;;5088479;28;20036;-45
2022/10/14 02:57:37;;;;;;;35.60;16.27;;;11.60;99.90;;;;;;5082416;28;20441;-43
2022/10/14 03:00:06;;;;;;;40.95;16.10;;;11.60;99.90;;;;;;5084394;28;20028;-43
2022/10/14 03:02:32;;;;;;;43.75;16.83;;;11.60;99.90;;;;;;5084806;28;20025;-40
2022/10/14 03:04:57;;;;;;;36.15;14.32;;;11.70;99.90;;;;;;5090802;28;20506;-43
2022/10/14 03:07:24;;;;;;;39.70;16.13;;;11.70;99.90;;;;;;5094302;28;20027;-45
2022/10/14 03:09:49;;;;;;;45.00;17.23;;;11.70;99.90;;;;;;5083709;28;20089;-50
2022/10/14 03:12:15;;;;;;;38.33;15.02;;;11.70;99.90;;;;;;5084092;28;20028;-44
2022/10/14 03:14:41;;;;;;;47.90;18.83;;;11.70;99.90;;;;;;5093780;28;20028;-39
2022/10/14 03:17:07;;;;;;;47.00;17.38;;;11.70;99.90;;;;;;5082864;28;20066;-36
2022/10/14 03:19:32;;;;;;;43.30;17.13;;;11.80;99.90;;;;;;5084366;28;20134;-36
2022/10/14 03:21:58;;;;;;;47.97;18.63;;;11.80;99.90;;;;;;5079662;28;20543;-48
2022/10/14 03:24:24;;;;;;;41.20;16.42;;;11.80;99.90;;;;;;5080958;28;20029;-42
2022/10/14 03:26:49;;;;;;;41.45;16.70;;;11.90;99.90;;;;;;5084938;28;20027;-43
2022/10/14 03:29:15;;;;;;;40.58;17.40;;;11.90;99.90;;;;;;5066218;28;20525;-41
2022/10/14 03:31:41;;;;;;;34.97;16.02;;;11.90;99.90;;;;;;5076840;28;20092;-41
2022/10/14 03:34:06;;;;;;;43.83;16.77;;;12.00;99.90;;;;;;5089722;28;20035;-60
2022/10/14 03:36:32;;;;;;;38.35;17.77;;;12.00;99.90;;;;;;5080182;28;20040;-36
2022/10/14 03:38:57;;;;;;;36.72;16.17;;;12.00;99.90;;;;;;5073735;28;20029;-35
2022/10/14 03:41:23;;;;;;;47.55;18.77;;;12.00;99.90;;;;;;5092521;28;20028;-40
2022/10/14 03:43:49;;;;;;;45.00;17.23;;;12.00;99.90;;;;;;5086867;28;20028;-38
2022/10/14 03:46:14;;;;;;;46.38;17.70;;;12.00;99.90;;;;;;5089495;28;20480;-40
2022/10/14 03:48:40;;;;;;;46.63;18.95;;;12.00;99.90;;;;;;5086373;28;20096;-37
2022/10/14 03:51:05;;;;;;;47.05;18.65;;;12.10;99.90;;;;;;5073673;28;20033;-37
2022/10/14 03:53:31;;;;;;;48.75;18.45;;;12.10;99.90;;;;;;5087220;28;20035;-35
2022/10/14 03:55:56;;;;;;;48.88;18.73;;;12.20;99.90;;;;;;5084566;28;20028;-34
2022/10/14 03:58:22;;;;;;;50.58;19.10;;;12.30;99.90;;;;;;5073290;28;20492;-41
2022/10/14 04:00:48;;;;;;;51.70;18.35;;;12.30;99.90;;;;;;5075781;28;20060;-37
2022/10/14 04:03:13;;;;;;;58.42;19.20;;;12.30;99.90;;;;;;5075990;28;20029;-38
2022/10/14 04:05:39;;;;;;;56.00;19.23;;;12.40;99.90;;;;;;5075363;28;20039;-31
2022/10/14 04:08:05;;;;;;;42.90;18.60;;;12.40;99.90;;;;;;5080287;28;20032;-37
2022/10/14 04:10:30;;;;;;;48.75;19.33;;;12.40;99.90;;;;;;5074246;28;20032;-50
2022/10/14 04:12:56;;;;;;;54.47;19.08;;;12.40;99.90;;;;;;5084327;28;20036;-43
2022/10/14 04:15:25;;;;;;;47.72;17.67;;;12.40;99.90;;;;;;5092689;28;20429;-42
2022/10/14 04:17:50;;;;;;;47.17;19.60;;;12.50;99.90;;;;;;5081904;28;20025;-41
2022/10/14 04:20:16;;;;;;;54.05;18.52;;;12.60;99.90;;;;;;5075526;28;20516;-46
2022/10/14 04:22:41;;;;;;;55.38;18.33;;;12.50;99.90;;;;;;5087204;28;20091;-41
2022/10/14 04:25:08;;;;;;;57.97;20.30;;;12.60;99.90;;;;;;5092705;28;20392;-42
2022/10/14 04:27:33;;;;;;;55.42;18.80;;;12.60;99.90;;;;;;5076606;28;20161;-43
2022/10/14 04:29:59;;;;;;;50.88;18.40;;;12.60;99.90;;;;;;5090625;28;20102;-44
2022/10/14 04:32:25;;;;;;;53.08;18.63;;;12.60;99.90;;;;;;5081132;28;20551;-41
2022/10/14 04:34:50;;;;;;;56.72;18.63;;;12.60;99.90;;;;;;5078217;28;20052;-43
2022/10/14 04:37:16;;;;;;;48.53;19.55;;;12.70;99.90;;;;;;5078241;28;20044;-48
2022/10/14 04:39:41;;;;;;;50.40;19.60;;;12.70;99.90;;;;;;5092096;28;20066;-42
2022/10/14 04:42:07;;;;;;;53.58;20.13;;;12.80;99.90;;;;;;5080666;28;20032;-42
2022/10/14 04:44:32;;;;;;;46.50;18.17;;;12.80;99.90;;;;;;5089563;28;20400;-45
2022/10/14 04:46:58;;;;;;;43.67;17.92;;;12.80;99.90;;;;;;5092255;28;20067;-42
2022/10/14 04:49:24;;;;;;;50.53;19.50;;;12.80;99.90;;;;;;5090199;28;20040;-41
2022/10/14 04:51:49;;;;;;;48.92;18.58;;;12.90;99.90;;;;;;5086093;28;20024;-42
2022/10/14 04:54:15;;;;;;;50.55;19.33;;;12.80;99.90;;;;;;5081619;28;20485;-46
2022/10/14 04:56:41;;;;;;;54.00;20.02;;;12.90;99.90;;;;;;5092169;28;20437;-45
2022/10/14 04:59:07;;;;;;;49.35;19.75;;;12.90;99.90;;;;;;5088503;28;20042;-44
2022/10/14 05:01:32;;;;;;;59.45;20.48;;;12.90;99.90;;;;;;5091912;28;20062;-42
2022/10/14 05:03:58;;;;;;;53.53;20.52;;;12.90;99.90;;;;;;5081863;28;20032;-42
2022/10/14 05:06:23;;;;;;;52.00;20.42;;;13.00;99.90;;;;;;5080542;28;20028;-42
2022/10/14 05:08:49;;;;;;;47.03;18.42;;;13.00;99.90;;;;;;5090371;28;20389;-41
2022/10/14 05:11:15;;;;;;;60.92;19.95;;;13.00;99.90;;;;;;5073776;28;20497;-34
2022/10/14 05:13:41;;;;;;;55.47;20.25;;;13.00;99.90;;;;;;5078837;28;20025;-41
2022/10/14 05:16:07;;;;;;;61.33;19.92;;;13.00;99.90;;;;;;5088578;28;20024;-43
2022/10/14 05:18:33;;;;;;;50.67;18.95;;;13.00;99.90;;;;;;5077571;28;20024;-39
2022/10/14 05:20:59;;;;;;;59.05;19.60;;;13.00;99.90;;;;;;5091008;28;20035;-35
2022/10/14 05:23:25;;;;;;;45.88;18.33;;;13.10;99.90;;;;;;5074134;28;20400;-36
2022/10/14 05:25:51;;;;;;;54.08;19.10;;;13.10;99.90;;;;;;5073243;28;20029;-38
2022/10/14 05:28:17;;;;;;;55.08;19.92;;;13.10;99.90;;;;;;5074666;28;20098;-35
2022/10/14 05:30:43;;;;;;;47.75;18.50;;;13.20;99.90;;;;;;5077562;28;20063;-38
2022/10/14 05:33:09;;;;;;;43.75;19.10;;;13.10;99.90;;;;;;5079047;28;20056;-37
2022/10/14 05:35:35;;;;;;;41.05;16.95;;;13.10;99.90;;;;;;5086942;28;20043;-33
2022/10/14 05:38:00;;;;;;;43.30;18.17;;;13.20;99.90;;;;;;5090526;28;20078;-43
2022/10/14 05:40:26;;;;;;;51.35;19.27;;;13.10;99.90;;;;;;5088897;28;20034;-38
2022/10/14 05:42:52;;;;;;;51.67;18.00;;;13.20;99.90;;;;;;5078011;28;20442;-37
2022/10/14 05:45:18;;;;;;;42.38;16.20;;;13.30;99.90;;;;;;5091631;28;20081;-44
2022/10/14 05:47:45;;;;;;;41.22;16.65;;;13.30;99.90;;;;;;5079466;28;20074;-44
2022/10/14 05:50:11;;;;;;;44.33;17.98;;;13.40;99.90;;;;;;5079375;28;20031;-46
2022/10/14 05:52:38;;;;;;;42.75;16.20;;;13.40;99.90;;;;;;5067271;28;20032;-41
2022/10/14 05:55:04;;;;;;;31.85;14.32;;;13.40;99.90;;;;;;5069739;28;20043;-44
2022/10/14 05:57:32;;;;;;;30.00;13.27;;;13.40;99.90;;;;;;5087487;28;20024;-52
2022/10/14 05:59:58;;;;;;;32.90;13.43;;;13.40;99.90;;;;;;5095548;28;20032;-43
2022/10/14 06:02:23;;;;;;;27.27;13.27;;;13.40;99.90;;;;;;5082970;28;20020;-43
2022/10/14 06:04:49;;;;;;;28.33;13.15;;;13.40;99.90;;;;;;5089056;28;20491;-45
2022/10/14 06:07:15;;;;;;;29.30;12.52;;;13.40;99.90;;;;;;5093766;28;20024;-43
2022/10/14 06:09:43;;;;;;;28.17;11.93;;;13.50;99.90;;;;;;5093218;28;20020;-46
2022/10/14 06:12:09;;;;;;;30.40;11.07;;;13.50;99.90;;;;;;5092549;28;20467;-42
2022/10/14 06:14:37;;;;;;;29.70;11.85;;;13.50;99.90;;;;;;5080662;28;20070;-42
2022/10/14 06:17:06;;;;;;;26.70;11.13;;;13.50;99.90;;;;;;5079555;28;20055;-42
2022/10/14 06:19:31;;;;;;;26.13;10.93;;;13.50;99.90;;;;;;5095532;28;20509;-43
2022/10/14 06:21:57;;;;;;;24.00;11.77;;;13.60;99.90;;;;;;5094568;28;20021;-43
2022/10/14 06:24:23;;;;;;;17.42;10.07;;;13.70;99.90;;;;;;5061296;28;20043;-42
2022/10/14 06:26:49;;;;;;;21.55;10.60;;;13.70;99.90;;;;;;5070427;28;20450;-48
2022/10/14 06:29:15;;;;;;;16.05;8.52;;;13.70;99.90;;;;;;5092991;28;20549;-38
2022/10/14 06:31:41;;;;;;;17.10;8.73;;;13.70;99.90;;;;;;5091803;28;20409;-39
2022/10/14 06:34:07;;;;;;;17.20;8.27;;;13.70;99.90;;;;;;5093192;28;20028;-40
2022/10/14 06:36:33;;;;;;;15.60;7.55;;;13.70;99.90;;;;;;5094220;28;20051;-40
2022/10/14 06:38:59;;;;;;;16.42;8.07;;;13.70;99.90;;;;;;5090393;28;20120;-41
2022/10/14 06:41:25;;;;;;;16.60;8.70;;;13.80;99.90;;;;;;5078950;28;20126;-40
2022/10/14 06:43:51;;;;;;;21.73;8.82;;;13.80;99.90;;;;;;5087637;28;20021;-41
2022/10/14 06:46:17;;;;;;;13.75;7.38;;;13.70;99.90;;;;;;5090166;28;20020;-42
2022/10/14 06:48:42;;;;;;;12.60;7.32;;;13.70;99.90;;;;;;5091819;28;20400;-56
2022/10/14 06:51:08;;;;;;;16.00;7.82;;;13.80;99.90;;;;;;5074746;28;20387;-46
2022/10/14 06:53:34;;;;;;;13.15;7.55;;;13.80;99.90;;;;;;5077384;28;20560;-44
2022/10/14 06:56:02;;;;;;;17.88;7.07;;;13.80;99.90;;;;;;5093225;28;20047;-42
2022/10/14 06:58:28;;;;;;;11.98;7.07;;;13.80;99.90;;;;;;5088289;28;20028;-40
2022/10/14 07:00:54;;;;;;;14.27;7.40;;;13.90;99.90;;;;;;5094046;28;20487;-43
2022/10/14 07:03:20;;;;;;;15.48;8.00;;;13.90;99.90;;;;;;5088710;28;20024;-44
2022/10/14 07:05:46;;;;;;;12.52;6.95;;;13.90;99.90;;;;;;5090441;28;20062;-42
2022/10/14 07:08:12;;;;;;;13.50;6.72;;;13.90;99.90;;;;;;5094772;28;20107;-44
2022/10/14 07:10:37;;;;;;;12.45;7.55;;;14.00;99.90;;;;;;5087955;28;20048;-45
2022/10/14 07:13:03;;;;;;;12.40;6.97;;;14.00;99.90;;;;;;5087004;28;20032;-43
2022/10/14 07:15:28;;;;;;;11.65;6.32;;;14.00;99.90;;;;;;5078264;28;20484;-45
2022/10/14 07:17:54;;;;;;;13.43;7.43;;;14.00;99.90;;;;;;5083031;28;20028;-43
2022/10/14 07:20:19;;;;;;;9.43;6.70;;;14.00;99.90;;;;;;5089865;28;20463;-45
2022/10/14 07:22:45;;;;;;;12.55;6.05;;;14.00;99.90;;;;;;5083444;28;20031;-44
2022/10/14 07:25:11;;;;;;;12.98;6.57;;;14.00;99.90;;;;;;5068099;28;20030;-46
2022/10/14 07:27:36;;;;;;;13.25;7.20;;;14.10;99.90;;;;;;5089107;28;20023;-45
2022/10/14 07:30:04;;;;;;;16.90;7.88;;;14.00;99.90;;;;;;5086480;28;20064;-42
2022/10/14 07:32:30;;;;;;;10.27;5.53;;;14.10;99.90;;;;;;5084773;28;20032;-42
2022/10/14 07:34:55;;;;;;;13.10;7.40;;;14.10;99.90;;;;;;5084096;28;20097;-41
2022/10/14 07:37:21;;;;;;;15.43;7.97;;;14.10;99.90;;;;;;5081962;28;20049;-44
2022/10/14 07:39:47;;;;;;;20.35;9.02;;;14.10;99.90;;;;;;5075166;28;20607;-52
2022/10/14 07:42:12;;;;;;;20.13;8.82;;;14.10;99.90;;;;;;5091810;28;20484;-38
2022/10/14 07:44:38;;;;;;;19.40;8.85;;;14.20;99.90;;;;;;5075075;28;20047;-46
2022/10/14 07:47:04;;;;;;;14.00;8.65;;;14.10;99.90;;;;;;5094073;28;20066;-38
2022/10/14 07:49:31;;;;;;;20.00;9.52;;;14.20;99.90;;;;;;5091969;28;20076;-39
2022/10/14 07:51:56;;;;;;;25.38;10.05;;;14.20;99.90;;;;;;5092894;28;20043;-36
2022/10/14 07:54:24;;;;;;;21.75;9.73;;;14.20;99.90;;;;;;5084891;28;20028;-41
2022/10/14 07:56:51;;;;;;;26.60;10.85;;;14.30;99.90;;;;;;5092283;28;20032;-39
2022/10/14 07:59:18;;;;;;;23.25;11.07;;;14.30;99.90;;;;;;5091854;28;20028;-36
2022/10/14 08:01:48;;;;;;;25.08;12.18;;;14.30;99.90;;;;;;5092764;28;20565;-42
2022/10/14 08:04:15;;;;;;;26.08;10.93;;;14.30;99.90;;;;;;5093910;28;20061;-45
2022/10/14 08:06:41;;;;;;;27.92;11.13;;;14.30;99.90;;;;;;5089589;28;20564;-42
2022/10/14 08:09:08;;;;;;;31.15;12.52;;;14.40;99.90;;;;;;5077334;28;20058;-43
2022/10/14 08:11:34;;;;;;;22.90;11.43;;;14.40;99.90;;;;;;5093574;28;20538;-45
2022/10/14 08:14:00;;;;;;;25.65;11.93;;;14.40;99.90;;;;;;5086674;28;20480;-46
2022/10/14 08:16:31;;;;;;;30.92;13.50;;;14.40;99.90;;;;;;5092898;28;20031;-44
2022/10/14 08:18:59;;;;;;;32.58;12.50;;;14.50;99.90;;;;;;5089109;28;20032;-46
2022/10/14 08:21:26;;;;;;;34.88;12.60;;;14.60;99.90;;;;;;5054668;28;20131;-45
2022/10/14 08:23:55;;;;;;;28.65;12.45;;;14.50;99.90;;;;;;5080262;28;20494;-45
2022/10/14 08:26:32;;;;;;;27.77;12.32;;;14.60;99.90;;;;;;5092493;28;20029;-45
2022/10/14 08:29:04;;;;;;;31.00;13.10;;;14.60;99.90;;;;;;5061688;28;20033;-45
2022/10/14 08:31:30;;;;;;;33.10;13.10;;;14.60;99.90;;;;;;5079077;28;20107;-41
2022/10/14 08:33:56;;;;;;;39.17;13.00;;;14.60;99.90;;;;;;5084625;28;20437;-43
2022/10/14 08:36:22;;;;;;;27.67;12.70;;;14.70;99.90;;;;;;5043438;28;20040;-44
2022/10/14 08:38:50;;;;;;;30.67;13.13;;;14.70;99.90;;;;;;5085010;28;20054;-44
2022/10/14 08:41:27;;;;;;;28.25;12.80;;;14.70;99.90;;;;;;5085117;28;20082;-46
2022/10/14 08:44:08;;;;;;;33.78;12.45;;;14.80;99.90;;;;;;5069421;28;20028;-44
2022/10/14 08:46:48;;;;;;;26.77;12.05;;;14.90;99.90;;;;;;5085454;28;20025;-47
2022/10/14 08:49:29;;;;;;;23.63;11.05;;;14.90;99.90;;;;;;5073036;28;20024;-44
2022/10/14 08:52:09;;;;;;;26.50;11.77;;;14.90;99.90;;;;;;5073714;28;20048;-44
2022/10/14 08:54:43;;;;;;;22.15;10.50;;;15.00;99.90;;;;;;5087823;28;20059;-46
2022/10/14 08:57:25;;;;;;;22.83;11.00;;;15.00;99.90;;;;;;5092852;28;20105;-44
2022/10/14 09:02:45;;;;;;;20.05;11.02;;;15.10;99.90;;;;;;5080100;28;20109;-46
2022/10/14 09:05:23;;;;;;;26.98;11.02;;;15.10;99.90;;;;;;5080814;28;20059;-45
2022/10/14 09:07:52;;;;;;;17.65;9.88;;;15.10;99.90;;;;;;5087426;28;20024;-45
2022/10/14 09:10:26;;;;;;;22.38;10.55;;;15.20;99.90;;;;;;5081456;28;20391;-44
2022/10/14 09:12:55;;;;;;;21.85;9.60;;;15.20;99.90;;;;;;5083970;28;20422;-42
2022/10/14 09:15:35;;;;;;;18.23;9.68;;;15.20;99.90;;;;;;5085100;28;20083;-48
2022/10/14 09:18:33;;;;;;;16.63;9.13;;;15.20;99.90;;;;;;5087558;28;20073;-42
2022/10/14 09:21:02;;;;;;;16.67;8.23;;;15.20;99.90;;;;;;5086477;28;20036;-44
2022/10/14 09:23:27;;;;;;;16.40;8.88;;;15.30;99.90;;;;;;5077740;28;20081;-39
2022/10/14 09:26:07;;;;;;;16.77;10.07;;;15.30;99.90;;;;;;5080118;28;20028;-42
2022/10/14 09:28:39;;;;;;;15.25;8.25;;;15.20;99.90;;;;;;5086231;28;20027;-44
2022/10/14 09:31:09;;;;;;;14.98;8.20;;;15.30;99.90;;;;;;5095074;28;20035;-44
2022/10/14 09:33:38;;;;;;;18.55;9.18;;;15.30;99.90;;;;;;5095932;28;20492;-45
2022/10/14 09:36:05;;;;;;;14.52;8.27;;;15.30;99.90;;;;;;5096351;28;20019;-43
2022/10/14 09:38:31;;;;;;;11.38;7.40;;;15.40;99.90;;;;;;5095583;28;20119;-47
2022/10/14 09:40:59;;;;;;;13.93;8.50;;;15.40;99.90;;;;;;5095052;28;20110;-41
2022/10/14 09:43:24;;;;;;;;;;;15.40;99.90;;;;;;5093863;28;20024;-35
2022/10/14 09:45:57;;;;;;;11.88;6.88;;;15.40;99.90;;;;;;5095009;28;19999;-36
2022/10/14 09:48:37;;;;;;;20.00;9.52;;;15.40;99.90;;;;;;5089342;28;20028;-39
2022/10/14 09:51:31;;;;;;;15.85;7.57;;;15.40;99.90;;;;;;5080855;28;20813;-37
2022/10/14 09:54:00;;;;;;;14.60;7.35;;;15.30;99.90;;;;;;5077430;28;20037;-36
2022/10/14 09:56:38;;;;;;;13.18;7.45;;;15.30;99.90;;;;;;5091870;28;20114;-36
2022/10/14 09:59:16;;;;;;;14.85;7.60;;;15.40;99.90;;;;;;5093705;28;20392;-39
2022/10/14 10:01:56;;;;;;;11.88;6.85;;;15.40;99.90;;;;;;5095269;28;20361;-39
2022/10/14 10:04:32;;;;;;;12.05;7.20;;;15.40;99.90;;;;;;5077614;28;20495;-44
2022/10/14 10:07:01;;;;;;;12.35;6.82;;;15.40;99.90;;;;;;5094363;28;20035;-45
2022/10/14 10:09:26;;;;;;;11.25;6.50;;;15.40;99.90;;;;;;5095881;28;20387;-45
2022/10/14 10:11:54;;;;;;;9.75;6.90;;;15.50;99.90;;;;;;5095809;28;20119;-55
2022/10/14 10:14:33;;;;;;;9.10;6.45;;;15.50;99.90;;;;;;5096173;28;20032;-45
2022/10/14 10:17:11;;;;;;;12.70;6.32;;;15.50;99.90;;;;;;5095760;28;20472;-46
2022/10/14 10:19:59;;;;;;;12.35;5.75;;;15.40;99.90;;;;;;5095366;28;20024;-51
2022/10/14 10:22:27;;;;;;;9.70;5.78;;;15.50;99.90;;;;;;5095731;28;20111;-42
2022/10/14 10:25:02;;;;;;;8.95;5.65;;;15.50;99.90;;;;;;5095574;28;20020;-51
2022/10/14 10:27:35;;;;;;;8.00;5.03;;;15.50;99.90;;;;;;5095837;28;20028;-45
2022/10/14 10:30:16;;;;;;;7.88;5.35;;;15.50;99.90;;;;;;5095571;28;20031;-46
2022/10/14 10:32:53;;;;;;;7.22;5.28;;;15.50;99.90;;;;;;5095501;28;20028;-46
2022/10/14 10:35:29;;;;;;;8.85;4.78;;;15.60;99.90;;;;;;5094309;28;20024;-45
2022/10/14 10:38:10;;;;;;;8.82;5.20;;;15.60;99.90;;;;;;5095202;28;20427;-50
2022/10/14 10:40:41;;;;;;;9.02;5.18;;;15.60;99.90;;;;;;5093137;28;20033;-45
2022/10/14 10:43:52;;;;;;;10.65;6.00;;;15.70;99.90;;;;;;5075134;28;20013;-47
2022/10/14 10:46:33;;;;;;;6.50;4.35;;;15.70;99.90;;;;;;4980834;28;20506;-44
2022/10/14 10:49:16;;;;;;;6.95;4.45;;;15.70;99.90;;;;;;5072183;28;20065;-46
2022/10/14 10:52:07;;;;;;;5.90;4.00;;;15.70;99.90;;;;;;5074952;28;20028;-46
2022/10/14 10:54:42;;;;;;;5.93;3.72;;;15.70;99.90;;;;;;5094755;28;20020;-44
2022/10/14 10:57:45;;;;;;;7.53;4.53;;;15.70;99.90;;;;;;5095072;28;20471;-45
2022/10/14 11:00:15;;;;;;;5.25;4.00;;;15.80;99.90;;;;;;5095102;28;20464;-43
2022/10/14 11:05:43;;;;;;;7.53;4.00;;;15.80;99.90;;;;;;5094893;28;20456;-50
2022/10/14 11:14:39;;;;;;;5.75;4.20;;;15.80;99.90;;;;;;5082896;28;20090;-47
2022/10/14 11:17:16;;;;;;;5.97;4.40;;;15.90;99.90;;;;;;5092682;28;20557;-42
2022/10/14 11:20:04;;;;;;;10.68;5.35;;;15.90;99.90;;;;;;5092263;28;20028;-44
2022/10/14 11:23:10;;;;;;;5.45;4.35;;;15.90;99.90;;;;;;5086512;28;20086;-43
2022/10/14 11:25:43;;;;;;;8.52;4.40;;;16.00;99.90;;;;;;5074172;28;20107;-42
2022/10/14 11:28:17;;;;;;;5.90;4.93;;;16.00;99.90;;;;;;5090255;28;20115;-43
2022/10/14 11:31:06;;;;;;;8.35;4.35;;;16.00;99.90;;;;;;5089084;28;20044;-43
2022/10/14 11:33:53;;;;;;;4.43;3.83;;;16.00;99.90;;;;;;5086538;28;20467;-43
2022/10/14 11:36:30;;;;;;;4.88;3.72;;;16.00;99.90;;;;;;5081469;28;20492;-43
2022/10/14 11:39:25;;;;;;;4.93;3.35;;;16.10;99.90;;;;;;5078287;28;20538;-44
2022/10/14 11:42:12;;;;;;;3.90;3.25;;;16.10;99.90;;;;;;5079770;28;20085;-44
2022/10/14 11:44:40;;;;;;;4.03;3.33;;;16.10;99.90;;;;;;5093952;28;20097;-43
2022/10/14 11:47:27;;;;;;;4.25;3.33;;;16.10;99.90;;;;;;5093056;28;20411;-47
2022/10/14 11:50:17;;;;;;;3.70;3.28;;;16.10;99.90;;;;;;5073744;28;20016;-41
2022/10/14 11:53:03;;;;;;;6.68;4.43;;;16.10;99.90;;;;;;5074220;28;20027;-40
2022/10/14 11:55:34;;;;;;;3.35;3.05;;;16.20;99.90;;;;;;5091378;28;20027;-43
2022/10/14 11:58:15;;;;;;;3.90;3.40;;;16.20;99.90;;;;;;5086360;28;20059;-42
2022/10/14 12:00:43;;;;;;;3.92;3.10;;;16.10;99.90;;;;;;5092630;28;20035;-42
2022/10/14 12:03:47;;;;;;;8.68;3.33;;;16.20;99.90;;;;;;5091850;28;20020;-45
2022/10/14 12:06:25;;;;;;;3.67;2.78;;;16.20;99.90;;;;;;5078300;28;20070;-43
2022/10/14 12:08:54;;;;;;;3.60;2.70;;;16.10;99.90;;;;;;5082015;28;20031;-45
2022/10/14 12:11:35;;;;;;;3.97;3.03;;;16.10;99.90;;;;;;5082977;28;20491;-45
2022/10/14 12:14:39;;;;;;;3.00;2.70;;;16.10;99.90;;;;;;5087526;28;20095;-41
2022/10/14 12:17:37;;;;;;;4.85;3.65;;;16.10;99.90;;;;;;5081766;28;20036;-43
2022/10/14 12:20:35;;;;;;;4.65;3.30;;;16.10;99.90;;;;;;5072893;28;20043;-42
2022/10/14 12:23:03;;;;;;;3.13;2.28;;;16.20;99.90;;;;;;5074569;28;20027;-42
2022/10/14 12:25:37;;;;;;;3.03;2.70;;;16.10;99.90;;;;;;5092702;28;20017;-41
2022/10/14 12:28:03;;;;;;;3.17;2.40;;;16.00;99.90;;;;;;5090682;28;20024;-41
2022/10/14 12:30:35;;;;;;;4.25;3.10;;;16.10;99.90;;;;;;5067604;28;20028;-43
2022/10/14 12:33:07;;;;;;;4.50;3.65;;;16.10;99.90;;;;;;5067338;28;20396;-49
2022/10/14 12:35:59;;;;;;;4.82;3.70;;;16.10;99.90;;;;;;5092469;28;20527;-44
2022/10/14 12:38:28;;;;;;;4.80;3.10;;;16.10;99.90;;;;;;5082693;28;20568;-41
2022/10/14 12:41:14;;;;;;;5.80;3.65;;;16.20;99.90;;;;;;5086277;28;20031;-41
2022/10/14 12:43:40;;;;;;;4.93;3.75;;;16.20;99.90;;;;;;5072530;28;20090;-41
2022/10/14 12:46:14;;;;;;;9.45;4.43;;;16.30;99.90;;;;;;5081440;28;20028;-41
2022/10/14 12:48:49;;;;;;;6.28;3.88;;;16.30;99.90;;;;;;5085964;28;20074;-40
2022/10/14 12:51:19;;;;;;;4.13;3.60;;;16.30;99.90;;;;;;5085568;28;20120;-40
2022/10/14 12:53:52;;;;;;;5.78;4.18;;;16.30;99.90;;;;;;5084684;28;20044;-42
2022/10/14 12:56:30;;;;;;;4.30;3.13;;;16.20;99.90;;;;;;5068184;28;20043;-45
2022/10/14 12:59:06;;;;;;;5.50;3.78;;;16.20;99.90;;;;;;5071929;28;20556;-42
2022/10/14 13:01:32;;;;;;;5.28;3.72;;;16.20;99.90;;;;;;5075967;28;20038;-42
2022/10/14 13:04:06;;;;;;;5.38;3.90;;;16.20;99.90;;;;;;5090115;28;20027;-43
2022/10/14 13:06:41;;;;;;;6.05;3.70;;;16.10;99.90;;;;;;5080503;28;20012;-40